Time;durP1;ratioP1;P1;durP2;ratioP2;P2;SDS_P1;SDS_P2;PMS_P1;PMS_P2;Temp;Humidity;BMP_temperature;BMP_pressure;BME280_temperature;BME280_humidity;BME280_pressure;Samples;Min_cycle;Max_cycle;Signal;HPM_P1;HPM_P2
2022/05/09 00:01:25;;;;;;;16.23;3.33;;;10.10;99.90;;;;;;5011242;28;20390;-72
2022/05/09 00:03:50;;;;;;;11.30;3.00;;;10.00;99.90;;;;;;5011551;28;20435;-72
2022/05/09 00:06:16;;;;;;;12.77;2.80;;;;;;;;;;5011221;28;20105;-72
2022/05/09 00:08:42;;;;;;;9.87;2.97;;;9.90;99.90;;;;;;5011796;28;20030;-72
2022/05/09 00:11:12;;;;;;;8.40;3.20;;;9.80;96.20;;;;;;5011335;28;20182;-72
2022/05/09 00:13:38;;;;;;;9.10;3.17;;;9.80;99.90;;;;;;5011719;28;20486;-71
2022/05/09 00:16:04;;;;;;;14.87;3.17;;;9.80;99.90;;;;;;5011204;28;20065;-71
2022/05/09 00:18:29;;;;;;;11.00;3.10;;;9.70;99.90;;;;;;5011421;28;20042;-71
2022/05/09 00:20:55;;;;;;;8.17;2.50;;;9.80;99.90;;;;;;5011116;28;20033;-71
2022/05/09 00:23:21;;;;;;;8.83;3.60;;;;;;;;;;5001079;28;20034;-71
2022/05/09 00:25:46;;;;;;;13.23;3.07;;;9.70;99.90;;;;;;4992138;28;20030;-71
2022/05/09 00:28:12;;;;;;;8.80;3.47;;;9.70;99.90;;;;;;4991924;28;20038;-71
2022/05/09 00:30:37;;;;;;;13.73;3.57;;;9.30;99.90;;;;;;4991894;28;20278;-71
2022/05/09 00:33:04;;;;;;;13.13;3.13;;;9.70;99.90;;;;;;4991576;28;20045;-71
2022/05/09 00:35:29;;;;;;;12.83;3.07;;;9.70;99.90;;;;;;4991304;28;20061;-71
2022/05/09 00:37:55;;;;;;;13.90;3.93;;;9.60;99.90;;;;;;4995954;28;20058;-71
2022/05/09 00:40:20;;;;;;;12.57;4.17;;;9.80;99.90;;;;;;5001318;28;20526;-71
2022/05/09 00:42:49;;;;;;;8.40;2.60;;;9.70;99.90;;;;;;4991604;28;20034;-71
2022/05/09 00:45:15;;;;;;;11.33;2.60;;;9.70;99.90;;;;;;4991167;28;20390;-71
2022/05/09 00:47:41;;;;;;;7.23;3.30;;;9.70;99.90;;;;;;4991502;28;20111;-71
2022/05/09 00:50:08;;;;;;;9.77;3.03;;;9.70;99.90;;;;;;4990808;28;20472;-72
2022/05/09 00:52:44;;;;;;;12.63;3.07;;;9.70;99.90;;;;;;4991727;28;20026;-71
2022/05/09 00:55:15;;;;;;;15.77;4.03;;;9.70;99.90;;;;;;4991160;28;20018;-71
2022/05/09 00:57:54;;;;;;;12.70;3.17;;;9.80;99.90;;;;;;4993186;28;20097;-71
2022/05/09 01:00:22;;;;;;;13.83;3.37;;;9.70;99.90;;;;;;5010616;28;20113;-71
2022/05/09 01:02:59;;;;;;;11.93;3.30;;;9.80;99.90;;;;;;5010420;28;20030;-71
2022/05/09 01:05:25;;;;;;;15.37;3.93;;;9.60;99.90;;;;;;5010825;28;20044;-71
2022/05/09 01:07:51;;;;;;;13.83;3.53;;;9.60;99.90;;;;;;5010838;28;20049;-71
2022/05/09 01:10:18;;;;;;;8.97;3.00;;;9.70;99.90;;;;;;4992732;28;20517;-71
2022/05/09 01:12:45;;;;;;;9.87;2.87;;;9.60;99.90;;;;;;5010745;28;20096;-71
2022/05/09 01:15:15;;;;;;;13.20;3.43;;;9.50;99.90;;;;;;5010406;28;20530;-71
2022/05/09 01:17:42;;;;;;;16.17;4.60;;;9.60;99.90;;;;;;5009998;28;20088;-71
2022/05/09 01:20:09;;;;;;;12.80;3.33;;;9.60;99.20;;;;;;5010355;28;20040;-71
2022/05/09 01:22:36;;;;;;;12.20;3.10;;;9.40;99.90;;;;;;4994849;28;20042;-71
2022/05/09 01:25:04;;;;;;;6.63;2.50;;;9.40;99.10;;;;;;4990468;28;20026;-71
2022/05/09 01:27:35;;;;;;;14.43;3.17;;;9.20;99.90;;;;;;4990979;28;20153;-71
2022/05/09 01:30:15;;;;;;;11.10;2.77;;;9.40;98.70;;;;;;4990829;28;20026;-72
2022/05/09 01:32:45;;;;;;;14.07;3.17;;;9.20;99.90;;;;;;4990695;28;20722;-71
2022/05/09 01:35:18;;;;;;;13.07;3.30;;;9.30;99.90;;;;;;4990592;28;20456;-71
2022/05/09 01:37:48;;;;;;;10.37;4.17;;;9.40;99.90;;;;;;4990881;28;20035;-71
2022/05/09 01:40:14;;;;;;;12.80;3.77;;;9.40;99.90;;;;;;4990491;28;20077;-71
2022/05/09 01:42:43;;;;;;;11.93;3.03;;;9.30;99.90;;;;;;4991015;28;20117;-71
2022/05/09 01:45:11;;;;;;;10.33;2.80;;;9.30;99.90;;;;;;5009687;28;20029;-71
2022/05/09 01:50:20;;;;;;;12.93;3.75;;;9.40;99.90;;;;;;5014125;28;20438;-71
2022/05/09 01:52:46;;;;;;;9.23;2.90;;;9.20;99.90;;;;;;5012641;28;20038;-71
2022/05/09 01:55:13;;;;;;;11.50;3.30;;;;;;;;;;5013767;28;20022;-72
2022/05/09 01:57:38;;;;;;;13.17;3.47;;;9.30;99.90;;;;;;5014083;28;20025;-71
2022/05/09 02:00:08;;;;;;;12.00;3.63;;;9.30;99.90;;;;;;5013823;28;20026;-71
2022/05/09 02:02:34;;;;;;;10.03;3.23;;;9.20;99.90;;;;;;5013625;28;20556;-71
2022/05/09 02:05:00;;;;;;;14.53;3.30;;;9.20;99.90;;;;;;5013683;28;20022;-72
2022/05/09 02:07:26;;;;;;;12.07;3.60;;;9.20;99.90;;;;;;5001024;28;20034;-71
2022/05/09 02:09:52;;;;;;;13.00;4.27;;;9.20;99.90;;;;;;4994395;28;20033;-71
2022/05/09 02:12:19;;;;;;;17.53;5.13;;;9.30;99.90;;;;;;4994059;28;20030;-71
2022/05/09 02:14:45;;;;;;;12.50;3.97;;;9.10;99.90;;;;;;4994460;28;20113;-72
2022/05/09 02:17:12;;;;;;;9.73;3.63;;;9.10;99.90;;;;;;5003705;28;20074;-71
2022/05/09 02:19:39;;;;;;;14.17;3.90;;;9.30;99.90;;;;;;4996162;28;20529;-71
2022/05/09 02:22:05;;;;;;;10.40;3.50;;;9.20;99.90;;;;;;5013516;28;20112;-71
2022/05/09 02:24:30;;;;;;;19.50;4.27;;;9.20;99.90;;;;;;5013588;28;20497;-71
2022/05/09 02:26:57;;;;;;;11.53;3.47;;;9.10;99.90;;;;;;5013594;28;20124;-71
2022/05/09 02:29:24;;;;;;;16.03;4.13;;;9.10;99.90;;;;;;5013235;28;20030;-71
2022/05/09 02:31:49;;;;;;;16.37;3.70;;;9.10;99.90;;;;;;5008037;28;20562;-71
2022/05/09 02:34:15;;;;;;;8.50;3.77;;;;;;;;;;4993827;28;20101;-71
2022/05/09 02:36:41;;;;;;;14.67;3.83;;;;;;;;;;4993772;28;20364;-71
2022/05/09 02:39:07;;;;;;;17.37;3.80;;;8.70;99.90;;;;;;4993626;28;20552;-71
2022/05/09 02:41:33;;;;;;;10.60;3.73;;;9.00;99.90;;;;;;4993662;28;20111;-71
2022/05/09 02:43:59;;;;;;;11.30;3.30;;;;;;;;;;4993017;28;20080;-71
2022/05/09 02:46:25;;;;;;;12.07;3.77;;;9.00;99.90;;;;;;4993504;28;20042;-71
2022/05/09 02:48:51;;;;;;;12.90;4.23;;;9.00;99.90;;;;;;4993667;28;20117;-71
2022/05/09 02:51:17;;;;;;;8.33;3.57;;;;;;;;;;4993263;28;20062;-71
2022/05/09 02:53:43;;;;;;;19.87;4.70;;;8.80;99.90;;;;;;5011681;28;20084;-71
2022/05/09 02:56:08;;;;;;;10.27;3.23;;;8.90;99.90;;;;;;5012923;28;20398;-71
2022/05/09 02:58:35;;;;;;;14.70;4.87;;;8.90;99.90;;;;;;5012469;28;20030;-71
2022/05/09 03:01:00;;;;;;;12.00;4.13;;;8.90;99.90;;;;;;5011871;28;20500;-71
2022/05/09 03:06:11;;;;;;;14.03;4.90;;;8.80;99.90;;;;;;5012500;28;20514;-71
2022/05/09 03:08:37;;;;;;;10.13;3.57;;;;;;;;;;4995580;28;20038;-71
2022/05/09 03:11:03;;;;;;;16.17;4.40;;;8.70;99.90;;;;;;4992819;28;20057;-71
2022/05/09 03:13:28;;;;;;;13.10;3.73;;;8.80;99.90;;;;;;4991585;28;20034;-72
2022/05/09 03:15:54;;;;;;;14.30;4.17;;;8.60;99.90;;;;;;4993584;28;20030;-71
2022/05/09 03:18:26;;;;;;;10.53;4.30;;;8.60;99.90;;;;;;5012272;28;20057;-71
2022/05/09 03:20:51;;;;;;;13.50;4.03;;;8.60;99.90;;;;;;5012307;28;20018;-71
2022/05/09 03:23:18;;;;;;;16.33;4.03;;;8.60;99.90;;;;;;5012420;28;20061;-71
2022/05/09 03:25:44;;;;;;;8.40;5.33;;;8.50;99.90;;;;;;5012294;28;20105;-71
2022/05/09 03:28:12;;;;;;;9.03;4.30;;;8.40;99.90;;;;;;4997487;28;20449;-71
2022/05/09 03:30:38;;;;;;;10.97;4.40;;;8.50;99.90;;;;;;4992779;28;20038;-71
2022/05/09 03:33:04;;;;;;;10.73;4.27;;;;;;;;;;5005922;28;20037;-71
2022/05/09 03:35:30;;;;;;;10.00;4.30;;;8.40;99.90;;;;;;5012255;28;20040;-71
2022/05/09 03:37:57;;;;;;;12.40;3.90;;;;;;;;;;5012412;28;20022;-71
2022/05/09 03:40:22;;;;;;;15.40;4.43;;;8.30;99.90;;;;;;5012000;28;20030;-71
2022/05/09 03:42:48;;;;;;;16.43;5.70;;;8.50;99.90;;;;;;5011737;28;20482;-70
2022/05/09 03:45:14;;;;;;;17.43;5.37;;;8.40;99.90;;;;;;5011994;28;20041;-71
2022/05/09 03:47:41;;;;;;;12.47;3.97;;;8.20;99.90;;;;;;5011723;28;20517;-71
2022/05/09 03:50:08;;;;;;;9.20;4.97;;;8.30;99.90;;;;;;5011882;28;20030;-71
2022/05/09 03:52:34;;;;;;;17.17;6.80;;;;;;;;;;4992740;28;20049;-71
2022/05/09 03:55:00;;;;;;;12.30;4.10;;;8.40;99.90;;;;;;4993386;28;20026;-71
2022/05/09 03:57:25;;;;;;;12.13;6.43;;;8.30;99.90;;;;;;5011409;28;20034;-71
2022/05/09 03:59:51;;;;;;;13.30;4.50;;;8.30;99.90;;;;;;5011933;28;20033;-71
2022/05/09 04:02:17;;;;;;;9.10;3.73;;;8.90;99.90;;;;;;5011337;28;20104;-71
2022/05/09 04:04:44;;;;;;;10.30;3.80;;;8.20;99.90;;;;;;5011213;28;20491;-71
2022/05/09 04:07:10;;;;;;;12.73;3.70;;;;;;;;;;5011027;28;20053;-71
2022/05/09 04:09:36;;;;;;;17.77;5.53;;;8.20;99.90;;;;;;5011846;28;20734;-71
2022/05/09 04:12:02;;;;;;;10.93;5.33;;;;;;;;;;5010860;28;20026;-71
2022/05/09 04:17:14;;;;;;;;;;;8.90;99.90;;;;;;4992052;28;20154;-71
2022/05/09 04:19:40;;;;;;;13.00;3.93;;;;;;;;;;4992202;28;19926;-71
2022/05/09 04:22:06;;;;;;;15.37;4.30;;;;;;;;;;4991832;28;20039;-71
2022/05/09 04:24:33;;;;;;;13.03;5.83;;;8.20;99.90;;;;;;4991947;28;20081;-71
2022/05/09 04:26:59;;;;;;;12.57;4.67;;;;;;;;;;4991146;28;20077;-71
2022/05/09 04:29:25;;;;;;;17.63;4.47;;;7.80;99.90;;;;;;4991773;28;20054;-71
2022/05/09 04:31:51;;;;;;;15.83;4.30;;;8.30;99.90;;;;;;5007648;28;20034;-71
2022/05/09 04:34:16;;;;;;;9.90;3.60;;;8.20;99.90;;;;;;5011069;28;20033;-71
2022/05/09 04:36:42;;;;;;;9.53;4.47;;;8.20;99.90;;;;;;5011450;28;20040;-71
2022/05/09 04:39:08;;;;;;;12.17;4.67;;;;;;;;;;5011018;28;20490;-71
2022/05/09 04:41:34;;;;;;;12.40;4.53;;;8.40;99.90;;;;;;4998449;28;20041;-72
2022/05/09 04:43:59;;;;;;;15.00;5.37;;;8.40;99.90;;;;;;4991155;28;20038;-71
2022/05/09 04:46:25;;;;;;;14.70;4.47;;;8.30;99.90;;;;;;4991795;28;20500;-71
2022/05/09 04:48:51;;;;;;;10.33;3.60;;;8.30;99.90;;;;;;5011105;28;20416;-71
2022/05/09 04:51:17;;;;;;;13.47;4.30;;;8.50;99.90;;;;;;5010092;28;20091;-71
2022/05/09 04:53:43;;;;;;;20.10;5.57;;;8.40;99.90;;;;;;5010938;28;20112;-70
2022/05/09 04:56:09;;;;;;;10.00;5.47;;;8.50;99.90;;;;;;5009992;28;20121;-71
2022/05/09 04:58:35;;;;;;;10.93;4.93;;;8.80;99.90;;;;;;5010740;28;20144;-71
2022/05/09 05:01:00;;;;;;;12.40;5.03;;;8.40;99.90;;;;;;5010474;28;20129;-73
2022/05/09 05:03:26;;;;;;;11.83;4.47;;;8.50;99.90;;;;;;5010739;28;20022;-70
2022/05/09 05:05:52;;;;;;;10.53;4.67;;;;;;;;;;5010629;28;20034;-70
2022/05/09 05:08:18;;;;;;;9.23;5.27;;;;;;;;;;5010171;28;20160;-71
2022/05/09 05:10:44;;;;;;;9.77;4.83;;;;;;;;;;5010182;28;20044;-70
2022/05/09 05:13:12;;;;;;;13.67;5.13;;;;;;;;;;5010078;28;20117;-70
2022/05/09 05:15:38;;;;;;;14.90;4.67;;;;;;;;;;5008346;28;20499;-70
2022/05/09 05:18:04;;;;;;;16.63;5.00;;;8.90;99.90;;;;;;5006713;28;20153;-70
2022/05/09 05:20:30;;;;;;;14.33;6.57;;;;;;;;;;5010532;28;20034;-70
2022/05/09 05:22:55;;;;;;;12.30;4.57;;;9.20;99.90;;;;;;5010092;28;20061;-71
2022/05/09 05:25:28;;;;;;;15.87;5.43;;;9.20;99.90;;;;;;5002993;28;20626;-72
2022/05/09 05:27:54;;;;;;;13.77;4.87;;;9.30;99.90;;;;;;4992402;28;20030;-71
2022/05/09 05:30:20;;;;;;;10.87;4.53;;;9.30;99.90;;;;;;5005525;28;20022;-71
2022/05/09 05:32:47;;;;;;;17.47;5.27;;;9.50;99.90;;;;;;5010342;28;20030;-71
2022/05/09 05:35:16;;;;;;;11.20;5.17;;;9.60;99.90;;;;;;5010285;28;20041;-72
2022/05/09 05:37:42;;;;;;;14.87;4.80;;;9.70;99.90;;;;;;5010239;28;20024;-71
2022/05/09 05:40:09;;;;;;;19.53;6.97;;;10.20;99.90;;;;;;5008167;28;20121;-73
2022/05/09 05:42:39;;;;;;;17.47;5.07;;;9.90;99.90;;;;;;5004199;28;20034;-72
2022/05/09 05:45:04;;;;;;;11.70;4.87;;;9.90;99.90;;;;;;5003495;28;20049;-72
2022/05/09 05:47:30;;;;;;;12.90;4.37;;;10.20;99.90;;;;;;5010168;28;20021;-74
2022/05/09 05:49:57;;;;;;;16.13;6.50;;;;;;;;;;5010138;28;20549;-72
2022/05/09 05:52:22;;;;;;;17.00;5.70;;;10.10;99.90;;;;;;4992983;28;20018;-73
2022/05/09 05:54:48;;;;;;;10.27;4.73;;;10.50;99.90;;;;;;4989990;28;20033;-73
2022/05/09 05:57:25;;;;;;;12.37;4.70;;;10.30;99.90;;;;;;4990495;28;20069;-73
2022/05/09 05:59:54;;;;;;;18.27;5.13;;;10.10;99.90;;;;;;4990514;28;20034;-73
2022/05/09 06:02:20;;;;;;;12.47;4.97;;;10.50;99.90;;;;;;4990250;28;20027;-73
2022/05/09 06:04:46;;;;;;;14.73;4.60;;;10.50;99.90;;;;;;5007519;28;20383;-73
2022/05/09 06:07:12;;;;;;;14.60;5.00;;;10.80;99.90;;;;;;4990863;28;20498;-72
2022/05/09 06:09:39;;;;;;;13.10;4.67;;;10.90;99.90;;;;;;5002844;28;20076;-73
2022/05/09 06:12:05;;;;;;;13.07;5.13;;;10.70;99.90;;;;;;5007322;28;20505;-72
2022/05/09 06:14:30;;;;;;;13.40;4.70;;;10.80;99.90;;;;;;5009646;28;20045;-73
2022/05/09 06:16:56;;;;;;;17.50;4.83;;;10.90;99.90;;;;;;5009874;28;20061;-73
2022/05/09 06:19:23;;;;;;;12.40;4.77;;;11.10;99.90;;;;;;5009419;28;20478;-72
2022/05/09 06:21:50;;;;;;;16.47;4.13;;;;;;;;;;5009397;28;20029;-73
2022/05/09 06:24:16;;;;;;;9.83;3.83;;;10.50;99.90;;;;;;4999026;28;20030;-73
2022/05/09 06:26:44;;;;;;;9.63;3.93;;;;;;;;;;5009645;28;20030;-73
2022/05/09 06:29:10;;;;;;;12.60;4.83;;;;;;;;;;5009542;28;20101;-73
2022/05/09 06:31:37;;;;;;;10.23;3.42;;;11.20;99.90;;;;;;5009789;28;20026;-73
2022/05/09 06:34:04;;;;;;;15.23;4.80;;;11.30;98.60;;;;;;5009622;28;20037;-71
2022/05/09 06:36:35;;;;;;;7.03;4.00;;;11.60;99.90;;;;;;5012773;28;20030;-73
2022/05/09 06:39:02;;;;;;;14.73;5.50;;;11.40;99.90;;;;;;5013089;28;20069;-73
2022/05/09 06:41:28;;;;;;;7.38;3.80;;;;;;;;;;5013366;28;20018;-73
2022/05/09 06:43:54;;;;;;;12.70;4.90;;;11.30;99.90;;;;;;5012184;28;20030;-73
2022/05/09 06:46:20;;;;;;;11.73;4.50;;;;;;;;;;5012974;28;20446;-74
2022/05/09 06:48:46;;;;;;;11.07;3.87;;;;;;;;;;5013375;28;20029;-74
2022/05/09 06:51:12;;;;;;;12.37;4.13;;;;;;;;;;5012644;28;20034;-74
2022/05/09 06:53:37;;;;;;;7.22;3.67;;;11.90;99.90;;;;;;4995542;28;20033;-74
2022/05/09 06:56:04;;;;;;;16.67;4.95;;;11.90;99.90;;;;;;4991619;28;20037;-74
2022/05/09 06:58:29;;;;;;;11.65;4.57;;;12.10;99.90;;;;;;5011608;28;20037;-75
2022/05/09 07:00:56;;;;;;;8.25;3.90;;;;;;;;;;5012297;28;20030;-74
2022/05/09 07:03:22;;;;;;;13.80;4.88;;;;;;;;;;5009057;28;20371;-74
2022/05/09 07:05:49;;;;;;;13.98;4.25;;;12.30;99.90;;;;;;5012146;28;20382;-74
2022/05/09 07:08:15;;;;;;;15.00;4.30;;;12.40;99.90;;;;;;5012388;28;20032;-73
2022/05/09 07:10:41;;;;;;;9.57;3.47;;;12.30;99.90;;;;;;5012181;28;20065;-72
2022/05/09 07:13:07;;;;;;;8.18;3.90;;;12.60;99.90;;;;;;5012626;28;20037;-72
2022/05/09 07:15:34;;;;;;;9.13;3.78;;;12.50;99.90;;;;;;5012459;28;20025;-73
2022/05/09 07:18:00;;;;;;;7.93;3.08;;;12.70;99.90;;;;;;5003728;28;20138;-72
2022/05/09 07:20:28;;;;;;;8.25;3.53;;;12.80;97.90;;;;;;4973153;28;20121;-70
2022/05/09 07:22:56;;;;;;;8.10;4.50;;;12.80;99.90;;;;;;4973622;28;20570;-73
2022/05/09 07:25:23;;;;;;;9.57;3.85;;;12.90;99.90;;;;;;4976816;28;20097;-72
2022/05/09 07:27:50;;;;;;;18.30;5.70;;;13.00;99.90;;;;;;4988161;28;20041;-72
2022/05/09 07:30:19;;;;;;;14.75;6.03;;;13.10;99.90;;;;;;4992555;28;20033;-73
2022/05/09 07:32:45;;;;;;;14.40;5.32;;;13.50;99.90;;;;;;4992516;28;20050;-73
2022/05/09 07:35:13;;;;;;;15.68;4.65;;;13.60;99.90;;;;;;4990902;28;20461;-73
2022/05/09 07:37:40;;;;;;;10.73;4.03;;;13.80;99.90;;;;;;4992658;28;20036;-73
2022/05/09 07:40:07;;;;;;;14.02;4.75;;;13.70;99.90;;;;;;4981410;28;20034;-72
2022/05/09 07:42:34;;;;;;;8.27;4.20;;;14.00;99.90;;;;;;4999911;28;20122;-70
2022/05/09 07:45:01;;;;;;;16.05;4.40;;;13.90;94.40;;;;;;4984815;28;20023;-73
2022/05/09 07:47:26;;;;;;;7.78;3.90;;;14.10;99.90;;;;;;4992102;28;20051;-73
2022/05/09 07:49:52;;;;;;;8.68;3.92;;;13.90;99.90;;;;;;4991792;28;20388;-72
2022/05/09 07:52:17;;;;;;;7.47;3.75;;;14.30;99.90;;;;;;4992015;28;20065;-73
2022/05/09 07:54:43;;;;;;;8.90;4.30;;;14.50;99.90;;;;;;4992414;28;20387;-73
2022/05/09 07:57:09;;;;;;;10.43;4.40;;;14.30;99.90;;;;;;4991724;28;20502;-73
2022/05/09 07:59:35;;;;;;;7.93;4.13;;;14.50;99.90;;;;;;4992380;28;20022;-72
2022/05/09 08:02:01;;;;;;;11.35;4.25;;;14.50;99.90;;;;;;4991424;28;20566;-73
2022/05/09 08:04:26;;;;;;;15.15;5.30;;;14.60;93.70;;;;;;4991846;28;20030;-73
2022/05/09 08:06:52;;;;;;;9.50;4.35;;;14.60;99.90;;;;;;4992141;28;20042;-73
2022/05/09 08:09:17;;;;;;;12.93;5.57;;;15.00;99.90;;;;;;4991779;28;20050;-73
2022/05/09 08:11:44;;;;;;;16.42;5.28;;;14.80;99.90;;;;;;4991960;28;20555;-73
2022/05/09 08:14:11;;;;;;;9.77;4.50;;;15.10;99.50;;;;;;4991653;28;20032;-73
2022/05/09 08:16:38;;;;;;;11.32;4.97;;;15.00;99.60;;;;;;4991392;28;20363;-73
2022/05/09 08:19:04;;;;;;;7.10;3.10;;;15.10;92.90;;;;;;5005146;28;20491;-73
2022/05/09 08:21:29;;;;;;;10.10;4.60;;;15.40;99.10;;;;;;5010578;28;20030;-73
2022/05/09 08:23:55;;;;;;;10.32;3.90;;;15.20;92.30;;;;;;5010199;28;20082;-73
2022/05/09 08:26:21;;;;;;;6.30;3.53;;;15.30;92.60;;;;;;5010881;28;20050;-73
2022/05/09 08:28:48;;;;;;;7.82;3.35;;;15.50;92.00;;;;;;5011219;28;20486;-73
2022/05/09 08:31:18;;;;;;;11.85;5.43;;;15.50;92.00;;;;;;4993405;28;20065;-73
2022/05/09 08:33:45;;;;;;;13.65;4.63;;;15.50;91.80;;;;;;5010501;28;20033;-73
2022/05/09 08:36:10;;;;;;;10.15;3.65;;;15.70;91.10;;;;;;5010661;28;20029;-73
2022/05/09 08:38:36;;;;;;;11.80;4.20;;;15.70;90.90;;;;;;5011198;28;20033;-73
2022/05/09 08:41:05;;;;;;;8.52;3.88;;;15.90;90.80;;;;;;5010869;28;20037;-73
2022/05/09 08:43:59;;;;;;;7.43;3.33;;;16.00;97.60;;;;;;5010911;28;20021;-73
2022/05/09 08:46:58;;;;;;;5.57;3.13;;;15.90;90.90;;;;;;5010685;28;20041;-74
2022/05/09 08:49:54;;;;;;;11.68;3.58;;;16.10;90.00;;;;;;5000766;28;20029;-74
2022/05/09 08:52:25;;;;;;;10.93;3.22;;;16.50;90.20;;;;;;5004054;28;20029;-76
2022/05/09 08:54:53;;;;;;;10.05;3.22;;;16.20;90.90;;;;;;5007028;28;20025;-76
2022/05/09 08:57:39;;;;;;;9.07;3.47;;;16.00;90.30;;;;;;5009809;28;20037;-74
2022/05/09 09:00:05;;;;;;;7.40;3.83;;;16.40;88.80;;;;;;5007682;28;20145;-76
2022/05/09 09:02:38;;;;;;;10.45;3.75;;;16.40;89.20;;;;;;5008943;28;20578;-74
2022/05/09 09:05:04;;;;;;;;;;;16.50;87.70;;;;;;5010589;28;20136;-74
2022/05/09 09:08:14;;;;;;;8.45;3.42;;;16.70;89.70;;;;;;4992971;28;19913;-75
2022/05/09 09:10:48;;;;;;;7.07;2.92;;;16.70;86.10;;;;;;4910670;29;20401;-75
2022/05/09 09:13:30;;;;;;;7.63;3.67;;;17.00;86.30;;;;;;4910660;29;20032;-75
2022/05/09 09:16:15;;;;;;;9.98;3.90;;;16.80;87.20;;;;;;4905005;29;20036;-75
2022/05/09 09:18:48;;;;;;;8.40;3.47;;;16.90;85.30;;;;;;4892997;29;20544;-74
2022/05/09 09:21:49;;;;;;;8.77;3.97;;;16.90;85.70;;;;;;4910612;29;20562;-74
2022/05/09 09:24:35;;;;;;;6.95;3.03;;;17.00;84.30;;;;;;4853694;29;20052;-74
2022/05/09 09:27:11;;;;;;;3.75;2.55;;;17.00;83.70;;;;;;4911266;29;20126;-75
2022/05/09 09:29:47;;;;;;;4.15;2.25;;;16.90;95.00;;;;;;4910474;29;20044;-75
2022/05/09 09:32:18;;;;;;;7.15;2.10;;;17.20;85.40;;;;;;4911017;29;20032;-74
2022/05/09 09:34:54;;;;;;;5.50;1.92;;;17.30;84.20;;;;;;4911529;29;20191;-75
2022/05/09 09:37:39;;;;;;;5.05;1.70;;;17.40;83.20;;;;;;4911433;29;20126;-74
2022/05/09 09:40:06;;;;;;;6.57;1.85;;;17.50;81.90;;;;;;4895459;29;20024;-74
2022/05/09 09:42:32;;;;;;;5.03;1.85;;;17.60;80.60;;;;;;4990213;28;20042;-74
2022/05/09 09:45:00;;;;;;;6.22;2.42;;;17.50;80.30;;;;;;4991448;28;20110;-74
2022/05/09 09:47:28;;;;;;;5.32;1.85;;;17.60;79.40;;;;;;5009025;28;20030;-74
2022/05/09 09:50:17;;;;;;;6.63;2.10;;;17.90;79.70;;;;;;5009930;28;20557;-75
2022/05/09 09:52:55;;;;;;;4.00;2.08;;;17.70;80.10;;;;;;5007814;28;20037;-74
2022/05/09 09:55:26;;;;;;;7.55;3.25;;;17.80;77.60;;;;;;5001182;28;20030;-75
2022/05/09 09:57:53;;;;;;;4.53;1.83;;;17.90;76.90;;;;;;4990663;28;20514;-74
2022/05/09 10:00:30;;;;;;;2.60;1.65;;;17.80;78.30;;;;;;5005803;28;20109;-74
2022/05/09 10:03:18;;;;;;;7.20;2.97;;;17.90;76.20;;;;;;5010346;28;20058;-74
2022/05/09 10:05:45;;;;;;;5.13;2.10;;;17.90;77.40;;;;;;5010148;28;20380;-74
2022/05/09 10:08:30;;;;;;;4.93;1.52;;;17.60;77.90;;;;;;5008003;28;20032;-75
2022/05/09 10:11:07;;;;;;;3.50;1.52;;;18.20;77.40;;;;;;5009910;28;20116;-73
2022/05/09 10:13:35;;;;;;;7.50;2.53;;;18.20;79.10;;;;;;5007622;28;20018;-73
2022/05/09 10:16:05;;;;;;;6.22;2.70;;;18.40;78.20;;;;;;5005649;28;20455;-73
2022/05/09 10:18:32;;;;;;;7.82;2.13;;;18.50;77.80;;;;;;5011472;28;20034;-73
2022/05/09 10:21:00;;;;;;;6.35;2.10;;;18.40;77.30;;;;;;5003968;28;20529;-74
2022/05/09 10:26:28;;;;;;;6.65;2.60;;;18.50;77.40;;;;;;4998240;28;20556;-73
2022/05/09 10:29:22;;;;;;;5.82;2.30;;;18.70;77.90;;;;;;5010651;28;20025;-73
2022/05/09 10:31:53;;;;;;;6.78;2.03;;;18.70;77.50;;;;;;5010614;28;20034;-73
2022/05/09 10:34:40;;;;;;;4.82;2.03;;;18.80;77.40;;;;;;5005011;28;20471;-74
2022/05/09 10:37:38;;;;;;;3.22;1.90;;;18.80;75.80;;;;;;5011646;28;20034;-73
2022/05/09 10:40:41;;;;;;;9.52;2.78;;;18.90;75.20;;;;;;5004094;28;20349;-73
2022/05/09 10:43:27;;;;;;;5.83;2.60;;;18.80;75.10;;;;;;5012602;28;20088;-74
2022/05/09 10:45:54;;;;;;;3.58;1.95;;;18.90;74.70;;;;;;4995642;28;20362;-72
2022/05/09 10:48:36;;;;;;;6.50;1.73;;;18.90;76.40;;;;;;5012141;28;20025;-73
2022/05/09 10:51:19;;;;;;;3.50;1.95;;;18.90;74.70;;;;;;5007120;28;20022;-73
2022/05/09 10:54:25;;;;;;;5.45;1.75;;;19.00;76.70;;;;;;4993392;28;20103;-73
2022/05/09 10:57:04;;;;;;;6.07;2.05;;;19.00;75.00;;;;;;5008532;28;20065;-73
2022/05/09 10:59:33;;;;;;;4.53;2.42;;;19.10;76.70;;;;;;5013806;28;20026;-73
2022/05/09 11:02:10;;;;;;;7.68;2.25;;;19.10;75.60;;;;;;5012205;28;20118;-73
2022/05/09 11:04:37;;;;;;;3.85;1.83;;;19.10;75.30;;;;;;4994945;28;20258;-73
2022/05/09 11:07:16;;;;;;;4.65;2.22;;;19.20;74.90;;;;;;5012124;28;20073;-73
2022/05/09 11:10:01;;;;;;;5.88;2.10;;;19.30;74.00;;;;;;5012728;28;20113;-73
2022/05/09 11:12:50;;;;;;;6.10;1.65;;;19.40;73.80;;;;;;5012266;28;20457;-73
2022/05/09 11:15:16;;;;;;;9.60;2.70;;;19.40;73.80;;;;;;5011302;28;20018;-73
2022/05/09 11:18:10;;;;;;;4.88;1.88;;;19.40;74.10;;;;;;5011649;28;20499;-73
2022/05/09 11:21:05;;;;;;;3.75;1.70;;;19.60;72.70;;;;;;5012042;28;20034;-73
2022/05/09 11:24:21;;;;;;;3.20;1.40;;;19.60;72.90;;;;;;5012527;28;20033;-74
2022/05/09 11:27:00;;;;;;;5.68;1.65;;;19.60;73.20;;;;;;4986593;28;20107;-73
2022/05/09 11:30:03;;;;;;;5.72;2.03;;;19.60;73.30;;;;;;4995032;28;20106;-73
2022/05/09 11:32:41;;;;;;;3.72;1.50;;;19.60;73.00;;;;;;4994095;28;20117;-73
2022/05/09 11:35:35;;;;;;;5.97;2.03;;;19.60;71.70;;;;;;5010385;28;20029;-73
2022/05/09 11:38:19;;;;;;;7.78;1.85;;;18.90;72.50;;;;;;5007834;28;20484;-73
2022/05/09 11:40:59;;;;;;;9.32;2.10;;;19.90;74.70;;;;;;5011724;28;20030;-73
2022/05/09 11:43:47;;;;;;;7.13;2.90;;;19.70;72.00;;;;;;5026220;28;20494;-73
2022/05/09 11:46:34;;;;;;;4.90;2.35;;;19.70;72.20;;;;;;5011926;28;20034;-72
2022/05/09 11:49:28;;;;;;;4.65;1.88;;;19.80;70.80;;;;;;4992273;28;20037;-73
2022/05/09 11:51:56;;;;;;;6.45;2.10;;;19.80;72.30;;;;;;5003287;28;20035;-73
2022/05/09 11:54:38;;;;;;;8.52;2.78;;;19.60;73.60;;;;;;4992469;28;20049;-73
2022/05/09 11:57:09;;;;;;;6.97;1.85;;;19.90;70.80;;;;;;5007440;28;20080;-72
2022/05/09 11:59:37;;;;;;;7.60;2.08;;;19.90;72.10;;;;;;5011960;28;20105;-72
2022/05/09 12:02:32;;;;;;;7.50;2.03;;;20.00;72.60;;;;;;5011700;28;20018;-73
2022/05/09 12:04:58;;;;;;;4.70;1.92;;;20.00;73.20;;;;;;5001147;28;20065;-73
2022/05/09 12:07:23;;;;;;;4.13;2.70;;;20.10;71.60;;;;;;5011227;28;20061;-73
2022/05/09 12:09:55;;;;;;;5.63;2.33;;;19.80;70.90;;;;;;5009254;28;20540;-73
2022/05/09 12:12:41;;;;;;;4.05;1.92;;;20.10;69.70;;;;;;5010715;28;20025;-73
2022/05/09 12:15:08;;;;;;;4.95;2.25;;;20.10;70.70;;;;;;5010478;28;20052;-73
2022/05/09 12:17:39;;;;;;;5.82;1.63;;;20.10;71.70;;;;;;5009768;28;20037;-73
2022/05/09 12:20:33;;;;;;;4.25;2.10;;;20.10;72.10;;;;;;5009683;28;20026;-72
2022/05/09 12:23:11;;;;;;;3.45;1.77;;;20.20;70.40;;;;;;4950006;29;20114;-73
2022/05/09 12:25:38;;;;;;;3.08;1.35;;;20.40;70.60;;;;;;4933331;29;20511;-73
2022/05/09 12:28:15;;;;;;;8.18;1.73;;;20.50;70.50;;;;;;4949979;29;20035;-73
2022/05/09 12:30:40;;;;;;;5.72;2.15;;;20.70;69.20;;;;;;4950512;29;20040;-74
2022/05/09 12:33:17;;;;;;;2.50;1.38;;;20.50;69.60;;;;;;4939106;29;20027;-73
2022/05/09 12:35:43;;;;;;;5.28;1.50;;;20.40;70.50;;;;;;4948511;29;20034;-73
2022/05/09 12:38:23;;;;;;;3.92;1.75;;;20.60;70.10;;;;;;4915580;29;20067;-73
2022/05/09 12:40:57;;;;;;;8.30;2.30;;;20.90;70.40;;;;;;4944099;29;20039;-73
2022/05/09 12:43:22;;;;;;;7.78;2.38;;;21.00;69.90;;;;;;4947130;29;20028;-73
2022/05/09 12:45:48;;;;;;;4.43;1.80;;;20.90;68.40;;;;;;4950060;29;20050;-73
2022/05/09 12:48:14;;;;;;;2.97;1.42;;;21.00;68.70;;;;;;4949734;29;20035;-73
2022/05/09 12:50:43;;;;;;;4.75;1.90;;;21.00;69.00;;;;;;4942619;29;20091;-73
2022/05/09 12:53:13;;;;;;;5.50;2.88;;;21.20;68.50;;;;;;4947388;29;20051;-71
2022/05/09 12:55:52;;;;;;;6.35;2.30;;;21.30;68.10;;;;;;4950039;28;20150;-72
2022/05/09 12:58:36;;;;;;;5.13;2.40;;;21.60;68.10;;;;;;4949927;29;20027;-72
2022/05/09 13:01:17;;;;;;;9.38;2.67;;;21.50;66.10;;;;;;4998642;28;20034;-72
2022/05/09 13:04:04;;;;;;;5.18;2.10;;;21.60;68.00;;;;;;5009974;28;20033;-73
2022/05/09 13:06:46;;;;;;;4.78;2.08;;;21.70;66.10;;;;;;5006005;28;20427;-72
2022/05/09 13:09:18;;;;;;;4.68;2.05;;;21.60;67.80;;;;;;5009821;28;20026;-72
2022/05/09 13:12:13;;;;;;;5.57;2.10;;;21.80;65.40;;;;;;5006338;28;20041;-74
2022/05/09 13:14:53;;;;;;;6.10;2.50;;;21.90;67.80;;;;;;5007641;28;20042;-72
2022/05/09 13:17:38;;;;;;;6.25;2.92;;;20.50;66.90;;;;;;4990738;28;20103;-73
2022/05/09 13:20:08;;;;;;;5.35;2.08;;;21.80;67.80;;;;;;4973203;28;20037;-74
2022/05/09 13:22:37;;;;;;;5.70;2.97;;;22.00;67.10;;;;;;4990546;28;20022;-73
2022/05/09 13:25:09;;;;;;;4.95;2.08;;;22.20;66.80;;;;;;4995232;28;20032;-73